Terminal Aerodrome Forecast
Issued by NWS Wilmington, NC

Current Version | Previous Version | Graphics & Text | Print | Product List | Glossary Off
Versions: 1 2 3 4 5 6 7 8 9 10 11 12 13 14

000
FTUS42 KILM 232300
TAFMYR
TAF
KMYR 232326Z 2400/2424 14015G19KT 3SM -RA BR BKN006 OVC015
     FM240200 17017KT 4SM -SHRA BR BKN006 BKN010 OVC025
      TEMPO 2402/2405 20015G30KT 1SM +TSRA BKN014CB
     FM240700 20012KT P6SM VCSH SCT006 BKN016
      TEMPO 2407/2411 2SM BR BKN004
     FM241100 21012G16KT 5SM BR BKN006
     FM241600 19011KT P6SM SCT007 OVC015
      AMD LTD TO CLD VIS AND WIND 2404/2411=

USA.gov is the U.S. government's official web portal to all federal, state and local government web resources and services.